»·PEaware :: N1718G KSAN-KSBP

N1718G :: KSAN-KSBP

FLIGHT INFORMATION

Flight Status: Arrived
Operator: Privately registered:
United States
More flights under this callsign
Pilot: Spencer M. (27733)
Aircraft: Unknown
(LEG2)
More flights by this aircraft type
Origin: KSAN San Diego Intl-Lindbergh
United States
Destination: KSBP San Luis Co Regl
United States
More flights between these airports :: More routes between these airports
Route: +ECHHO2 IKAYE RZS V25 WYNNR
File this flight plan on PilotEdge
Remarks:
Altitude:
(Current/Filed)
16,000ft
Speed:
(Current/Filed)
240kts
Departed: 12-Oct-20 06:52 PM
Arrived: 12-Oct-20 08:02 PM
Distance/Time
Traveled:
228nm/1:10
Distance/Time
To Go:
Arrived

Flight Plot

Page will automatically refresh every two minutes.

Flight plan parsing failed; only flown route is shown


Map Options




Map Legend


Flown Route
Filed Route
Departure Airport
Arrival Airport
Navaid (VOR, NDB)
Fix

Horizontal Profiles

Position Reports

Time Latitude Longitude Heading Altitude Ground
Speed
12-Oct-20 18:30 32.733382 -117.178325 17 19ft 0kts
12-Oct-20 18:31 32.733382 -117.178325 17 19ft 0kts
12-Oct-20 18:32 32.733382 -117.178325 17 19ft 0kts
12-Oct-20 18:34 32.733382 -117.178325 17 19ft 0kts
12-Oct-20 18:35 32.733382 -117.178325 17 19ft 0kts
12-Oct-20 18:36 32.733382 -117.178325 17 19ft 0kts
12-Oct-20 18:37 32.733382 -117.178325 17 19ft 0kts
12-Oct-20 18:38 32.733382 -117.178325 17 19ft 0kts
12-Oct-20 18:39 32.733382 -117.178325 17 19ft 0kts
12-Oct-20 18:40 32.733382 -117.178325 17 19ft 0kts
12-Oct-20 18:41 32.733443 -117.178317 354 19ft 2kts
12-Oct-20 18:42 32.733591 -117.179313 248 19ft 5kts
12-Oct-20 18:43 32.732106 -117.178882 104 19ft 7kts
12-Oct-20 18:44 32.731383 -117.176002 118 19ft 8kts
12-Oct-20 18:45 32.730878 -117.175487 145 19ft 0kts
12-Oct-20 18:46 32.730879 -117.175487 145 19ft 0kts
12-Oct-20 18:47 32.730878 -117.175487 145 19ft 0kts
12-Oct-20 18:48 32.730879 -117.175487 145 19ft 0kts
12-Oct-20 18:49 32.730879 -117.175487 145 19ft 0kts
12-Oct-20 18:50 32.730277 -117.176089 287 19ft 15kts
12-Oct-20 18:51 32.741182 -117.211121 307 1080ft 156kts
12-Oct-20 18:52 32.768394 -117.255422 307 2869ft 173kts
12-Oct-20 18:53 32.796636 -117.301663 328 4669ft 174kts
12-Oct-20 18:54 32.842477 -117.321571 344 6539ft 181kts
12-Oct-20 18:55 32.890953 -117.340644 344 8300ft 187kts
12-Oct-20 18:56 32.939943 -117.360366 345 9978ft 186kts
12-Oct-20 18:57 32.985117 -117.389737 324 11521ft 194kts
12-Oct-20 18:58 33.025419 -117.431905 323 13000ft 191kts
12-Oct-20 18:59 33.064900 -117.473280 322 14337ft 188kts
12-Oct-20 19:00 33.103718 -117.514009 320 15607ft 184kts
12-Oct-20 19:01 33.145428 -117.557366 320 15945ft 216kts
12-Oct-20 19:02 33.191635 -117.605886 319 15991ft 226kts
12-Oct-20 19:03 33.238548 -117.657895 318 15993ft 232kts
12-Oct-20 19:04 33.286293 -117.709438 322 15998ft 231kts
12-Oct-20 19:05 33.336681 -117.757118 322 15999ft 231kts
12-Oct-20 19:06 33.386847 -117.805421 322 16002ft 231kts
12-Oct-20 19:07 33.436856 -117.853729 322 16005ft 231kts
12-Oct-20 19:08 33.486896 -117.902126 322 15963ft 233kts
12-Oct-20 19:09 33.536298 -117.951490 313 15986ft 231kts
12-Oct-20 19:10 33.568971 -118.018171 301 15995ft 232kts
12-Oct-20 19:11 33.599995 -118.086424 301 15995ft 233kts
12-Oct-20 19:12 33.630919 -118.154474 301 16002ft 232kts
12-Oct-20 19:13 33.661876 -118.222715 301 16008ft 233kts
12-Oct-20 19:14 33.692775 -118.290959 301 16012ft 233kts
12-Oct-20 19:15 33.723688 -118.359359 301 16015ft 234kts
12-Oct-20 19:16 33.755066 -118.428792 301 16014ft 238kts
12-Oct-20 19:17 33.786644 -118.498887 301 16012ft 239kts
12-Oct-20 19:18 33.818219 -118.569168 301 16012ft 239kts
12-Oct-20 19:19 33.849817 -118.639660 301 16011ft 239kts
12-Oct-20 19:20 33.881408 -118.710279 300 16013ft 239kts
12-Oct-20 19:21 33.920525 -118.773858 320 16017ft 238kts
12-Oct-20 19:22 33.970660 -118.825527 320 16018ft 238kts
12-Oct-20 19:23 34.020508 -118.877828 320 16025ft 238kts
12-Oct-20 19:24 34.070534 -118.930493 320 16002ft 239kts
12-Oct-20 19:25 34.120470 -118.983152 321 16006ft 239kts
12-Oct-20 19:26 34.162737 -119.044318 305 16005ft 239kts
12-Oct-20 19:27 34.197115 -119.113090 303 16005ft 238kts
12-Oct-20 19:28 34.229908 -119.180943 303 16006ft 230kts
12-Oct-20 19:29 34.261953 -119.247453 303 16006ft 228kts
12-Oct-20 19:30 34.293779 -119.313410 303 16005ft 227kts
12-Oct-20 19:31 34.325611 -119.379431 303 16004ft 227kts
12-Oct-20 19:32 34.357412 -119.445488 303 16001ft 227kts
12-Oct-20 19:33 34.389239 -119.511713 303 15997ft 227kts
12-Oct-20 19:34 34.420936 -119.577795 303 15996ft 227kts
12-Oct-20 19:35 34.452576 -119.643900 303 15995ft 226kts
12-Oct-20 19:36 34.483640 -119.709141 303 15996ft 221kts
12-Oct-20 19:37 34.516018 -119.770855 320 16008ft 211kts
12-Oct-20 19:39 34.564989 -119.808231 332 16005ft 207kts
12-Oct-20 19:40 34.614728 -119.843482 331 16011ft 207kts
12-Oct-20 19:41 34.664896 -119.879777 331 15304ft 214kts
12-Oct-20 19:42 34.715565 -119.916632 330 14317ft 203kts
12-Oct-20 19:43 34.760827 -119.950429 330 13289ft 185kts
12-Oct-20 19:44 34.805226 -119.982708 332 12271ft 188kts
12-Oct-20 19:45 34.851224 -120.014267 331 11140ft 194kts
12-Oct-20 19:46 34.897833 -120.048135 329 9916ft 196kts
12-Oct-20 19:47 34.943572 -120.082066 328 8690ft 190kts
12-Oct-20 19:48 34.988344 -120.115892 326 7472ft 190kts
12-Oct-20 19:49 35.032838 -120.149898 328 6249ft 185kts
12-Oct-20 19:50 35.076091 -120.182217 328 5029ft 182kts
12-Oct-20 19:51 35.115341 -120.218321 298 4105ft 175kts
12-Oct-20 19:52 35.118796 -120.275374 275 3880ft 167kts
12-Oct-20 19:53 35.119850 -120.331946 273 3880ft 166kts
12-Oct-20 19:54 35.120266 -120.388413 273 3880ft 166kts
12-Oct-20 19:54 35.120958 -120.435447 282 3808ft 169kts
12-Oct-20 19:56 35.151196 -120.491295 309 2894ft 160kts
12-Oct-20 19:56 35.172353 -120.526696 305 2470ft 153kts
12-Oct-20 19:58 35.195242 -120.567875 307 1913ft 99kts
12-Oct-20 19:58 35.208146 -120.589951 306 1328ft 93kts
12-Oct-20 19:59 35.222512 -120.615105 306 700ft 87kts
12-Oct-20 20:00 35.236001 -120.638675 306 214ft 71kts
12-Oct-20 20:01 35.239898 -120.643680 99 214ft 6kts
12-Oct-20 20:02 35.238558 -120.641447 123 214ft 9kts
12-Oct-20 20:03 35.238118 -120.639536 178 214ft 0kts

Navigation Log

Ident Type
Flight plan parsing failed, navigation log unavailable